Data for 03/15/2007

Time Sea-Level Adjusted Pressure Absolute Pressure Temperature Relative Humidity Dew Point   
(mb) (inHg) (mb) (inHg) (C) (F) (%) (C) (F)
00:05 1022 30.18 851 25.13 0.4 32.7 41 -11.4 11.5
00:10 1022 30.18 851 25.13 0.2 32.3 43 -11 12.1
00:15 1022 30.18 851 25.13 0.1 32.1 43 -11 12.2
00:20 1022 30.18 851 25.13 -0.1 31.8 44 -10.9 12.3
00:25 1022 30.18 851 25.13 -0.3 31.5 46 -10.7 12.7
00:30 1022 30.18 851 25.13 -0.4 31.3 46 -10.6 12.9
00:35 1022 30.18 851 25.13 -0.5 31.1 47 -10.6 13
00:40 1022 30.18 851 25.13 -0.5 31 46 -10.7 12.7
00:45 1022 30.18 852 25.16 -0.6 30.9 46 -10.7 12.7
00:50 1022 30.18 852 25.16 -0.6 31 46 -10.9 12.4
00:55 1022 30.18 852 25.16 -0.5 31.1 46 -10.8 12.6
01:00 1023 30.21 852 25.16 -0.7 30.8 50 -9.8 14.3
01:05 1022 30.18 852 25.16 -1.1 30 53 -9.6 14.8
01:10 1023 30.21 852 25.16 -1.7 28.9 58 -8.9 16.1
01:15 1023 30.21 852 25.16 -2.1 28.2 58 -9.3 15.3
01:20 1023 30.21 852 25.16 -2.1 28.2 57 -9.6 14.8
01:25 1023 30.21 852 25.16 -1.9 28.5 57 -9.3 15.3
01:30 1023 30.21 852 25.16 -1.8 28.8 57 -9.2 15.5
01:35 1023 30.21 852 25.16 -1.7 29 57 -9.2 15.4
01:40 1023 30.21 852 25.16 -1.6 29.2 55 -9.4 15
01:45 1023 30.21 852 25.16 -1.7 28.9 57 -9.1 15.6
01:50 1023 30.21 852 25.16 -2 28.4 58 -9.3 15.3
01:55 1023 30.21 852 25.16 -1.9 28.7 55 -9.7 14.6
02:00 1023 30.21 852 25.16 -1.8 28.7 55 -9.8 14.4
02:05 1023 30.21 852 25.16 -1.9 28.6 57 -9.4 15.1
02:10 1023 30.21 852 25.16 -2.1 28.3 56 -9.6 14.6
02:15 1023 30.21 852 25.16 -2.5 27.5 58 -9.7 14.6
02:20 1023 30.21 852 25.16 -2.6 27.4 58 -9.7 14.6
02:25 1023 30.21 852 25.16 -2.6 27.4 60 -9.3 15.2
02:30 1023 30.21 852 25.16 -2.7 27.2 60 -9.3 15.2
02:35 1023 30.21 852 25.16 -2.7 27.1 60 -9.4 15.1
02:40 1023 30.21 852 25.16 -2.7 27.1 60 -9.4 15
02:45 1023 30.21 852 25.16 -2.7 27.1 60 -9.5 14.9
02:50 1023 30.21 852 25.16 -2.7 27.1 59 -9.7 14.5
02:55 1023 30.21 852 25.16 -2.8 26.9 60 -9.7 14.6
03:00 1023 30.21 852 25.16 -3 26.7 59 -9.8 14.4
03:05 1023 30.21 852 25.16 -2.9 26.7 60 -9.7 14.5
03:10 1023 30.21 852 25.16 -2.9 26.8 60 -9.7 14.5
03:15 1023 30.21 852 25.16 -3 26.7 60 -9.7 14.6
03:20 1023 30.21 852 25.16 -3.1 26.4 59 -9.9 14.1
03:25 1023 30.21 852 25.16 -3.1 26.4 61 -9.7 14.6
03:30 1023 30.21 852 25.16 -3.3 26.1 60 -10 14.1
03:35 1023 30.21 852 25.16 -3.2 26.2 60 -9.9 14.2
03:40 1023 30.21 852 25.16 -3.3 26 61 -9.8 14.3
03:45 1023 30.21 852 25.16 -3.3 26.1 61 -9.8 14.3
03:50 1023 30.21 852 25.16 -3.3 26 61 -9.7 14.5
03:55 1023 30.21 852 25.16 -3.5 25.7 62 -9.7 14.5
04:00 1023 30.21 853 25.19 -3.7 25.4 62 -9.9 14.2
04:05 1023 30.21 853 25.19 -3.8 25.2 62 -10 14
04:10 1023 30.21 853 25.19 -3.8 25.1 62 -10.1 13.8
04:15 1023 30.21 853 25.19 -3.9 25 61 -10.2 13.6
04:20 1023 30.21 853 25.19 -3.9 25 61 -10.3 13.5
04:25 1023 30.21 853 25.19 -3.8 25.1 61 -10.2 13.6
04:30 1023 30.21 853 25.19 -3.8 25.1 61 -10.4 13.3
04:35 1023 30.21 853 25.19 -3.6 25.5 59 -10.5 13.1
04:40 1023 30.21 853 25.19 -3.5 25.7 59 -10.5 13.2
04:45 1023 30.21 853 25.19 -3.3 26 58 -10.5 13.1
04:50 1023 30.21 853 25.19 -3.4 26 57 -10.6 12.9
04:55 1023 30.21 853 25.19 -3.3 26.1 59 -10.3 13.5
05:00 1023 30.21 853 25.19 -3.6 25.5 61 -10.1 13.7
05:05 1023 30.21 853 25.19 -3.8 25.1 62 -10.1 13.8
05:10 1023 30.21 853 25.19 -4 24.8 63 -10.1 13.8
05:15 1023 30.21 853 25.19 -4.1 24.6 64 -10 13.9
05:20 1023 30.21 853 25.19 -4.3 24.2 64 -10 13.9
05:25 1023 30.21 853 25.19 -4.4 24.2 64 -10.2 13.6
05:30 1023 30.21 853 25.19 -4.3 24.2 63 -10.4 13.3
05:35 1023 30.21 853 25.19 -4.2 24.4 64 -10.1 13.9
05:40 1023 30.21 853 25.19 -4.4 24.2 64 -10.2 13.6
05:45 1023 30.21 852 25.16 -4.1 24.6 62 -10.3 13.5
05:50 1023 30.21 852 25.16 -4.1 24.6 63 -10.1 13.7
05:55 1023 30.21 853 25.19 -4.3 24.2 65 -10 13.9
06:00 1023 30.21 853 25.19 -4.6 23.8 65 -10.1 13.8
06:05 1023 30.21 853 25.19 -4.4 24 63 -10.5 13.1
06:10 1023 30.21 853 25.19 -4.4 24 64 -10.3 13.4
06:15 1023 30.21 853 25.19 -4.5 23.9 64 -10.3 13.5
06:20 1024 30.24 853 25.19 -4.5 23.9 64 -10.4 13.3
06:25 1024 30.24 853 25.19 -4.5 23.9 64 -10.3 13.5
06:30 1024 30.24 853 25.19 -4.7 23.6 65 -10.2 13.6
06:35 1024 30.24 853 25.19 -4.8 23.3 66 -10.2 13.6
06:40 1024 30.24 853 25.19 -4.9 23.2 66 -10.3 13.5
06:45 1024 30.24 853 25.19 -4.8 23.3 66 -10.2 13.6
06:50 1024 30.24 853 25.19 -4.8 23.3 65 -10.4 13.3
06:55 1024 30.24 853 25.19 -4.7 23.5 65 -10.3 13.5
07:00 1024 30.24 853 25.19 -4.7 23.6 64 -10.5 13.2
07:05 1024 30.24 853 25.19 -4.6 23.8 64 -10.3 13.4
07:10 1024 30.24 853 25.19 -4.6 23.8 65 -10.3 13.5
07:15 1024 30.24 853 25.19 -4.6 23.7 65 -10.3 13.4
07:20 1024 30.24 853 25.19 -4.6 23.7 64 -10.4 13.2
07:25 1024 30.24 853 25.19 -4.5 23.9 64 -10.4 13.3
07:30 1024 30.24 854 25.22 -4.6 23.7 65 -10.3 13.5
07:35 1024 30.24 854 25.22 -4.6 23.6 65 -10.2 13.6
07:40 1025 30.27 854 25.22 -4.6 23.7 64 -10.4 13.2
07:45 1025 30.27 854 25.22 -4.7 23.5 66 -10.2 13.7
07:50 1025 30.27 854 25.22 -4.9 23.1 67 -10.2 13.7
07:55 1025 30.27 854 25.22 -4.8 23.4 66 -10.3 13.5
08:00 1025 30.27 854 25.22 -4.7 23.6 65 -10.4 13.3
08:05 1025 30.27 854 25.22 -4.4 24 63 -10.5 13.2
08:10 1025 30.27 854 25.22 -4.1 24.7 63 -10.2 13.7
08:15 1025 30.27 854 25.22 -4.1 24.7 63 -10.1 13.9
08:20 1025 30.27 854 25.22 -4 24.8 63 -10.1 13.8
08:25 1025 30.27 854 25.22 -3.9 24.9 62 -10.1 13.7
08:30 1025 30.27 854 25.22 -3.8 25.2 63 -9.8 14.4
08:35 1025 30.27 854 25.22 -3.6 25.5 62 -9.9 14.2
08:40 1025 30.27 854 25.22 -3.3 26 60 -10.1 13.9
08:45 1025 30.27 854 25.22 -3.1 26.5 58 -10.2 13.7
08:50 1025 30.27 854 25.22 -3.1 26.4 60 -9.8 14.3
08:55 1025 30.27 854 25.22 -3.1 26.3 62 -9.5 14.9
09:00 1025 30.27 854 25.22 -3 26.6 62 -9.4 15.1
09:05 1025 30.27 854 25.22 -2.9 26.8 62 -9.3 15.3
09:10 1025 30.27 854 25.22 -2.6 27.2 61 -9.1 15.6
09:15 1025 30.27 854 25.22 -2.4 27.7 60 -9.2 15.4
09:20 1025 30.27 854 25.22 -2.1 28.2 59 -9.1 15.6
09:25 1025 30.27 854 25.22 -1.9 28.6 59 -8.9 16
09:30 1025 30.27 854 25.22 -1.6 29.1 58 -8.8 16.2
09:35 1025 30.27 854 25.22 -0.9 30.4 56 -8.6 16.5
09:40 1025 30.27 854 25.22 -0.2 31.7 53 -8.6 16.4
09:45 1025 30.27 854 25.22 -0 32 52 -8.8 16.1
09:50 1025 30.27 854 25.22 0.2 32.4 49 -9.2 15.5
09:55 1025 30.27 854 25.22 0.5 32.9 47 -9.5 15
10:00 1025 30.27 854 25.22 0.4 32.8 49 -9 15.8
10:05 1025 30.27 854 25.22 0.9 33.6 46 -9.4 15.1
10:10 1025 30.27 854 25.22 1 33.8 46 -9.2 15.4
10:15 1025 30.27 854 25.22 1.7 35.1 44 -9.3 15.2
10:20 1025 30.27 854 25.22 2.4 36.4 42 -9.2 15.4
10:25 1025 30.27 854 25.22 3 37.4 40 -9.4 15
10:30 1025 30.27 854 25.22 2.6 36.7 41 -9.3 15.3
10:35 1025 30.27 854 25.22 3 37.4 39 -9.6 14.7
10:40 1025 30.27 854 25.22 3.1 37.6 39 -9.5 14.9
10:45 1025 30.27 854 25.22 3.7 38.6 37 -9.8 14.3
10:50 1025 30.27 854 25.22 4.5 40.1 35 -9.9 14.3
10:55 1025 30.27 854 25.22 4.2 39.5 37 -9.2 15.5
11:00 1025 30.27 854 25.22 3.8 38.8 37 -9.6 14.8
11:05 1025 30.27 854 25.22 4 39.2 36 -9.8 14.4
11:10 1025 30.27 854 25.22 3.4 38.1 37 -10 14
11:15 1025 30.27 854 25.22 3.3 38 37 -9.9 14.2
11:20 1025 30.27 854 25.22 3.9 39.1 34 -10.5 13
11:25 1025 30.27 854 25.22 4 39.3 34 -10.6 13
11:30 1025 30.27 854 25.22 4.3 39.8 33 -10.5 13.1
11:35 1025 30.27 854 25.22 4.8 40.7 33 -10.2 13.7
11:40 1025 30.27 854 25.22 5 41 32 -10.2 13.7
11:45 1025 30.27 854 25.22 5.2 41.3 32 -10.4 13.4
11:50 1025 30.27 854 25.22 4 39.1 34 -10.5 13.2
11:55 1025 30.27 854 25.22 3.9 39.1 34 -10.4 13.2
12:00 1025 30.27 854 25.22 4.3 39.8 32 -10.8 12.6
12:05 1025 30.27 854 25.22 4.6 40.2 33 -10.4 13.2
12:10 1025 30.27 854 25.22 5.2 41.4 32 -10.3 13.5
12:15 1025 30.27 854 25.22 5.3 41.6 32 -10.1 13.7
12:20 1025 30.27 854 25.22 4.7 40.4 32 -10.7 12.8
12:25 1025 30.27 854 25.22 5.2 41.3 32 -10.2 13.6
12:30 1025 30.27 854 25.22 5.3 41.6 31 -10.4 13.3
12:35 1025 30.27 854 25.22 5.3 41.5 32 -10.2 13.6
12:40 1025 30.27 854 25.22 6.1 42.9 30 -10.3 13.5
12:45 1025 30.27 854 25.22 4.4 39.9 34 -10.1 13.8
12:50 1025 30.27 854 25.22 4 39.3 35 -10.2 13.6
12:55 1025 30.27 854 25.22 4.8 40.7 33 -10.1 13.8
13:00 1025 30.27 854 25.22 5.1 41.2 32 -10.1 13.8
13:05 1025 30.27 854 25.22 5.4 41.8 33 -9.7 14.6
13:10 1025 30.27 854 25.22 5.3 41.5 33 -9.7 14.6
13:15 1025 30.27 854 25.22 5.1 41.1 33 -9.8 14.3
13:20 1025 30.27 854 25.22 4.9 40.8 32 -10.7 12.8
13:25 1025 30.27 854 25.22 6 42.9 30 -10.5 13.1
13:30 1025 30.27 854 25.22 5.7 42.3 32 -9.8 14.4
13:35 1025 30.27 854 25.22 6.1 42.9 30 -10.4 13.4
13:40 1025 30.27 854 25.22 6.8 44.3 29 -10.1 13.9
13:45 1025 30.27 854 25.22 6.2 43.2 31 -9.6 14.7
13:50 1025 30.27 854 25.22 5.5 42 33 -9.6 14.7
13:55 1024 30.24 854 25.22 5.3 41.5 31 -10.4 13.3
14:00 1024 30.24 853 25.19 6.1 43 30 -10.3 13.4
14:05 1024 30.24 853 25.19 7.2 45 29 -9.6 14.8
14:10 1024 30.24 854 25.22 5.4 41.7 33 -9.7 14.6
14:15 1024 30.24 853 25.19 4.8 40.6 33 -10.2 13.7
14:20 1024 30.24 853 25.19 5 41 32 -10.4 13.3
14:25 1024 30.24 853 25.19 5.4 41.8 31 -10.4 13.3
14:30 1024 30.24 853 25.19 6.8 44.2 28 -10.6 12.9
14:35 1024 30.24 853 25.19 7.6 45.8 26 -10.5 13
14:40 1024 30.24 853 25.19 7.3 45.1 28 -10.1 13.9
14:45 1024 30.24 853 25.19 7.3 45.2 26 -10.7 12.7
14:50 1024 30.24 853 25.19 7.4 45.3 26 -10.7 12.8
14:55 1024 30.24 853 25.19 6.2 43.2 27 -11.6 11.1
15:00 1024 30.24 853 25.19 6.5 43.8 26 -11.6 11.1
15:05 1023 30.21 853 25.19 7.6 45.6 25 -11.5 11.3
15:10 1023 30.21 853 25.19 8.4 47.1 23 -11.5 11.3
15:15 1023 30.21 853 25.19 8.3 47 25 -10.7 12.7
15:20 1023 30.21 853 25.19 7.3 45.2 26 -11 12.3
15:25 1023 30.21 853 25.19 7.4 45.3 24 -11.7 11
15:30 1023 30.21 853 25.19 8.2 46.7 23 -11.7 11
15:35 1023 30.21 853 25.19 8.5 47.2 23 -11.5 11.3
15:40 1023 30.21 853 25.19 8.8 47.9 23 -11.3 11.6
15:45 1023 30.21 853 25.19 8 46.4 24 -11.4 11.5
15:50 1023 30.21 853 25.19 8.1 46.6 24 -11.3 11.6
15:55 1023 30.21 853 25.19 8.9 48.1 23 -11.3 11.6
16:00 1023 30.21 853 25.19 9 48.2 22 -11.4 11.5
16:05 1023 30.21 853 25.19 8.8 47.8 23 -11.3 11.6
16:10 1023 30.21 853 25.19 9 48.3 23 -11.2 11.8
16:15 1023 30.21 853 25.19 9.1 48.3 23 -11.2 11.8
16:20 1023 30.21 853 25.19 9.2 48.5 22 -11.6 11.2
16:25 1023 30.21 853 25.19 9.6 49.2 22 -11.3 11.7
16:30 1023 30.21 852 25.16 9.5 49.2 22 -11.4 11.5
16:35 1023 30.21 852 25.16 9.8 49.7 21 -11.3 11.6
16:40 1023 30.21 852 25.16 10 50.1 21 -11.5 11.3
16:45 1023 30.21 852 25.16 9.2 48.5 23 -11 12.2
16:50 1023 30.21 852 25.16 8.2 46.8 23 -11.7 10.9
16:55 1023 30.21 852 25.16 9.2 48.6 22 -11.7 10.9
17:00 1023 30.21 852 25.16 9.7 49.4 20 -12.1 10.3
17:05 1023 30.21 852 25.16 10.1 50.1 20 -11.8 10.8
17:10 1023 30.21 852 25.16 10.3 50.5 20 -11.8 10.8
17:15 1023 30.21 852 25.16 9.9 49.9 21 -11.3 11.6
17:20 1023 30.21 852 25.16 9.9 49.9 20 -11.9 10.6
17:25 1023 30.21 852 25.16 9.6 49.4 21 -11.7 10.9
17:30 1023 30.21 852 25.16 8.2 46.7 23 -11.9 10.6
17:35 1023 30.21 852 25.16 7.9 46.1 24 -11.8 10.8
17:40 1023 30.21 852 25.16 8 46.4 23 -12 10.4
17:45 1023 30.21 852 25.16 7.7 45.9 23 -12 10.5
17:50 1023 30.21 852 25.16 7.4 45.4 24 -11.7 10.9
17:55 1023 30.21 852 25.16 8.2 46.8 22 -12.2 10.1
18:00 1023 30.21 852 25.16 8.8 47.8 22 -12 10.4
18:05 1023 30.21 852 25.16 9 48.3 22 -11.5 11.2
18:10 1023 30.21 852 25.16 8.7 47.7 22 -11.7 11
18:15 1023 30.21 852 25.16 7.7 45.8 24 -11.8 10.7
18:20 1023 30.21 852 25.16 7.5 45.6 24 -11.8 10.7
18:25 1023 30.21 852 25.16 7.3 45.1 25 -11.8 10.8
18:30 1023 30.21 852 25.16 7.3 45.1 24 -12 10.4
18:35 1023 30.21 852 25.16 7.3 45.2 24 -11.9 10.6
18:40 1023 30.21 852 25.16 7.3 45.2 24 -11.7 10.9
18:45 1023 30.21 852 25.16 7.3 45.1 23 -12.4 9.8
18:50 1023 30.21 852 25.16 7 44.6 24 -12.2 10.1
18:55 1023 30.21 852 25.16 6.9 44.4 24 -12.3 9.9
19:00 1023 30.21 852 25.16 6.7 44.1 25 -11.9 10.6
19:05 1023 30.21 852 25.16 6.9 44.5 25 -11.9 10.6
19:10 1023 30.21 852 25.16 7 44.6 24 -12.4 9.6
19:15 1023 30.21 852 25.16 6.9 44.4 24 -12.6 9.3
19:20 1023 30.21 852 25.16 6.7 44.1 26 -11.3 11.6
19:25 1023 30.21 852 25.16 6.5 43.7 29 -10.1 13.8
19:30 1023 30.21 852 25.16 6.1 43 30 -10.1 13.8
19:35 1023 30.21 852 25.16 6 42.8 30 -10.1 13.8
19:40 1023 30.21 852 25.16 6 42.8 31 -9.9 14.2
19:45 1023 30.21 852 25.16 5.8 42.5 32 -9.7 14.5
19:50 1023 30.21 852 25.16 5.8 42.4 32 -9.7 14.5
19:55 1023 30.21 852 25.16 5.7 42.3 32 -9.5 14.8
20:00 1023 30.21 852 25.16 5.6 42.1 33 -9.6 14.8
20:05 1023 30.21 852 25.16 5.6 42 34 -9.1 15.6
20:10 1023 30.21 852 25.16 5.4 41.8 35 -8.7 16.3
20:15 1023 30.21 852 25.16 5.3 41.5 37 -8.2 17.2
20:20 1023 30.21 852 25.16 5.1 41.1 39 -7.9 17.8
20:25 1023 30.21 852 25.16 4.9 40.8 39 -7.8 18
20:30 1023 30.21 852 25.16 4.7 40.4 40 -7.8 17.9
20:35 1023 30.21 852 25.16 4.5 40.1 42 -7.4 18.7
20:40 1023 30.21 852 25.16 4.6 40.2 41 -7.6 18.3
20:45 1023 30.21 852 25.16 4.7 40.4 41 -7.4 18.7
20:50 1023 30.21 852 25.16 4.7 40.5 39 -8 17.7
20:55 1023 30.21 852 25.16 4.7 40.4 38 -8.4 16.9
21:00 1023 30.21 852 25.16 4.7 40.5 39 -8.2 17.3
21:05 1023 30.21 852 25.16 4.8 40.6 39 -8.1 17.4
21:10 1023 30.21 852 25.16 4.9 40.8 35 -9.2 15.4
21:15 1023 30.21 852 25.16 4.9 40.8 37 -8.5 16.6
21:20 1023 30.21 852 25.16 4.9 40.9 35 -9.4 15.1
21:25 1023 30.21 852 25.16 5 41 36 -8.9 15.9
21:30 1023 30.21 852 25.16 4.8 40.7 36 -9.2 15.5
21:35 1023 30.21 852 25.16 4.7 40.5 36 -9.2 15.5
21:40 1023 30.21 852 25.16 4.6 40.3 38 -8.4 16.8
21:45 1023 30.21 852 25.16 4.5 40.1 40 -7.8 18
21:50 1023 30.21 852 25.16 4.4 40 38 -8.7 16.4
21:55 1023 30.21 852 25.16 4.3 39.8 40 -8.2 17.2
22:00 1023 30.21 852 25.16 4.3 39.8 39 -8.5 16.7
22:05 1023 30.21 852 25.16 4.4 40 34 -10.2 13.6
22:10 1023 30.21 852 25.16 4.8 40.7 32 -10.4 13.3
22:15 1023 30.21 852 25.16 5.1 41.1 33 -9.9 14.2
22:20 1023 30.21 852 25.16 4.9 40.8 34 -9.6 14.6
22:25 1023 30.21 852 25.16 5.1 41.2 35 -9.1 15.7
22:30 1023 30.21 852 25.16 5.2 41.3 36 -8.6 16.5
22:35 1023 30.21 852 25.16 4.9 40.9 38 -8.1 17.4
22:40 1023 30.21 852 25.16 4.7 40.5 39 -8 17.7
22:45 1023 30.21 852 25.16 4.7 40.4 39 -8 17.6
22:50 1023 30.21 852 25.16 4.9 40.8 40 -7.6 18.4
22:55 1023 30.21 852 25.16 4.9 40.9 41 -7.3 18.9
23:00 1023 30.21 852 25.16 4.7 40.4 42 -7.1 19.2
23:05 1023 30.21 852 25.16 4.7 40.5 41 -7.3 18.8
23:10 1023 30.21 852 25.16 4.6 40.3 40 -7.8 17.9
23:15 1023 30.21 852 25.16 4.8 40.6 41 -7.3 18.9
23:20 1023 30.21 852 25.16 4.6 40.2 35 -9.6 14.7
23:25 1023 30.21 852 25.16 4.7 40.4 43 -6.8 19.8
23:30 1023 30.21 852 25.16 4.6 40.2 42 -7.3 18.9
23:35 1023 30.21 852 25.16 4.8 40.6 38 -8.3 17
23:40 1023 30.21 852 25.16 4.8 40.7 41 -7.4 18.7
23:45 1023 30.21 852 25.16 4.5 40.2 40 -7.9 17.7
23:50 1023 30.21 852 25.16 4.7 40.4 40 -7.8 18
23:55 1023 30.21 852 25.16 4.7 40.5 40 -7.7 18.1
24:00 1023 30.21 852 25.16 4.6 40.3 39 -8.1 17.5